sensor_id;sensor_type;location;lat;lon;timestamp;P1;durP1;ratioP1;P2;durP2;ratioP2
14247;SDS011;7208;49.826;6.004;2022-09-11T00:00:53;32.47;;;23.17;;
14247;SDS011;7208;49.826;6.004;2022-09-11T00:03:20;32.13;;;23.80;;
14247;SDS011;7208;49.826;6.004;2022-09-11T00:05:47;36.47;;;23.13;;
14247;SDS011;7208;49.826;6.004;2022-09-11T00:08:14;42.20;;;23.37;;
14247;SDS011;7208;49.826;6.004;2022-09-11T00:10:41;34.20;;;23.60;;
14247;SDS011;7208;49.826;6.004;2022-09-11T00:13:08;37.67;;;24.23;;
14247;SDS011;7208;49.826;6.004;2022-09-11T00:15:35;33.20;;;23.37;;
14247;SDS011;7208;49.826;6.004;2022-09-11T00:18:02;31.20;;;23.10;;
14247;SDS011;7208;49.826;6.004;2022-09-11T00:20:28;39.30;;;24.33;;
14247;SDS011;7208;49.826;6.004;2022-09-11T00:22:54;34.43;;;23.13;;
14247;SDS011;7208;49.826;6.004;2022-09-11T00:25:21;33.10;;;22.90;;
14247;SDS011;7208;49.826;6.004;2022-09-11T00:27:47;26.13;;;21.50;;
14247;SDS011;7208;49.826;6.004;2022-09-11T00:30:14;29.87;;;22.73;;
14247;SDS011;7208;49.826;6.004;2022-09-11T00:32:40;32.40;;;23.93;;
14247;SDS011;7208;49.826;6.004;2022-09-11T00:35:06;29.23;;;22.80;;
14247;SDS011;7208;49.826;6.004;2022-09-11T00:37:32;37.20;;;24.63;;
14247;SDS011;7208;49.826;6.004;2022-09-11T00:39:58;36.63;;;24.40;;
14247;SDS011;7208;49.826;6.004;2022-09-11T00:42:24;36.80;;;22.10;;
14247;SDS011;7208;49.826;6.004;2022-09-11T00:47:16;35.13;;;24.60;;
14247;SDS011;7208;49.826;6.004;2022-09-11T00:49:47;35.63;;;23.73;;
14247;SDS011;7208;49.826;6.004;2022-09-11T00:52:18;33.60;;;24.37;;
14247;SDS011;7208;49.826;6.004;2022-09-11T00:57:13;38.80;;;24.47;;
14247;SDS011;7208;49.826;6.004;2022-09-11T00:59:41;41.60;;;25.50;;
14247;SDS011;7208;49.826;6.004;2022-09-11T01:02:07;35.10;;;24.47;;
14247;SDS011;7208;49.826;6.004;2022-09-11T01:04:37;38.33;;;25.00;;
14247;SDS011;7208;49.826;6.004;2022-09-11T01:07:03;39.07;;;25.23;;
14247;SDS011;7208;49.826;6.004;2022-09-11T01:09:30;45.53;;;25.80;;
14247;SDS011;7208;49.826;6.004;2022-09-11T01:14:50;51.40;;;24.90;;
14247;SDS011;7208;49.826;6.004;2022-09-11T01:28:00;41.63;;;25.83;;
14247;SDS011;7208;49.826;6.004;2022-09-11T01:30:40;40.80;;;26.43;;
14247;SDS011;7208;49.826;6.004;2022-09-11T01:33:29;44.30;;;26.90;;
14247;SDS011;7208;49.826;6.004;2022-09-11T01:38:51;49.10;;;26.27;;
14247;SDS011;7208;49.826;6.004;2022-09-11T01:43:52;64.90;;;26.63;;
14247;SDS011;7208;49.826;6.004;2022-09-11T01:46:20;56.07;;;24.87;;
14247;SDS011;7208;49.826;6.004;2022-09-11T01:48:48;43.17;;;25.23;;
14247;SDS011;7208;49.826;6.004;2022-09-11T01:51:18;53.30;;;25.07;;
14247;SDS011;7208;49.826;6.004;2022-09-11T01:53:45;44.87;;;24.40;;
14247;SDS011;7208;49.826;6.004;2022-09-11T01:56:15;48.07;;;25.23;;
14247;SDS011;7208;49.826;6.004;2022-09-11T01:58:43;50.63;;;26.07;;
14247;SDS011;7208;49.826;6.004;2022-09-11T02:01:15;48.87;;;27.03;;
14247;SDS011;7208;49.826;6.004;2022-09-11T02:03:44;47.87;;;25.67;;
14247;SDS011;7208;49.826;6.004;2022-09-11T02:06:13;46.73;;;26.20;;
14247;SDS011;7208;49.826;6.004;2022-09-11T02:08:45;56.40;;;26.03;;
14247;SDS011;7208;49.826;6.004;2022-09-11T02:11:14;53.27;;;25.63;;
14247;SDS011;7208;49.826;6.004;2022-09-11T02:13:57;54.53;;;26.30;;
14247;SDS011;7208;49.826;6.004;2022-09-11T02:19:01;45.33;;;24.80;;
14247;SDS011;7208;49.826;6.004;2022-09-11T02:21:28;54.60;;;25.30;;
14247;SDS011;7208;49.826;6.004;2022-09-11T02:23:54;49.90;;;26.23;;
14247;SDS011;7208;49.826;6.004;2022-09-11T02:26:25;61.73;;;26.03;;
14247;SDS011;7208;49.826;6.004;2022-09-11T02:28:51;48.23;;;26.73;;
14247;SDS011;7208;49.826;6.004;2022-09-11T02:31:18;61.87;;;26.23;;
14247;SDS011;7208;49.826;6.004;2022-09-11T02:33:44;52.80;;;27.27;;
14247;SDS011;7208;49.826;6.004;2022-09-11T02:38:45;56.50;;;28.03;;
14247;SDS011;7208;49.826;6.004;2022-09-11T02:41:18;57.20;;;28.33;;
14247;SDS011;7208;49.826;6.004;2022-09-11T02:59:00;81.07;;;27.80;;
14247;SDS011;7208;49.826;6.004;2022-09-11T03:01:28;55.47;;;27.50;;
14247;SDS011;7208;49.826;6.004;2022-09-11T03:03:55;76.67;;;30.03;;
14247;SDS011;7208;49.826;6.004;2022-09-11T03:06:23;67.40;;;28.40;;
14247;SDS011;7208;49.826;6.004;2022-09-11T03:08:49;64.67;;;29.03;;
14247;SDS011;7208;49.826;6.004;2022-09-11T03:11:16;63.87;;;28.53;;
14247;SDS011;7208;49.826;6.004;2022-09-11T03:13:43;63.33;;;29.90;;
14247;SDS011;7208;49.826;6.004;2022-09-11T03:16:09;92.97;;;29.87;;
14247;SDS011;7208;49.826;6.004;2022-09-11T03:18:36;78.07;;;29.67;;
14247;SDS011;7208;49.826;6.004;2022-09-11T03:21:02;67.30;;;28.77;;
14247;SDS011;7208;49.826;6.004;2022-09-11T03:23:28;63.87;;;28.03;;
14247;SDS011;7208;49.826;6.004;2022-09-11T03:25:54;69.53;;;28.37;;
14247;SDS011;7208;49.826;6.004;2022-09-11T03:28:21;82.17;;;28.73;;
14247;SDS011;7208;49.826;6.004;2022-09-11T03:30:48;85.83;;;29.50;;
14247;SDS011;7208;49.826;6.004;2022-09-11T03:33:14;78.17;;;29.13;;
14247;SDS011;7208;49.826;6.004;2022-09-11T03:35:43;80.00;;;29.67;;
14247;SDS011;7208;49.826;6.004;2022-09-11T03:38:10;89.90;;;29.07;;
14247;SDS011;7208;49.826;6.004;2022-09-11T03:40:36;93.53;;;30.27;;
14247;SDS011;7208;49.826;6.004;2022-09-11T03:43:02;77.07;;;28.30;;
14247;SDS011;7208;49.826;6.004;2022-09-11T03:45:28;86.67;;;29.57;;
14247;SDS011;7208;49.826;6.004;2022-09-11T03:47:54;87.63;;;29.63;;
14247;SDS011;7208;49.826;6.004;2022-09-11T03:50:21;73.37;;;28.73;;
14247;SDS011;7208;49.826;6.004;2022-09-11T03:52:47;77.57;;;26.07;;
14247;SDS011;7208;49.826;6.004;2022-09-11T03:55:13;76.80;;;26.90;;
14247;SDS011;7208;49.826;6.004;2022-09-11T03:57:40;93.57;;;27.27;;
14247;SDS011;7208;49.826;6.004;2022-09-11T04:00:07;71.53;;;26.83;;
14247;SDS011;7208;49.826;6.004;2022-09-11T04:02:34;69.03;;;26.47;;
14247;SDS011;7208;49.826;6.004;2022-09-11T04:05:00;81.17;;;26.13;;
14247;SDS011;7208;49.826;6.004;2022-09-11T04:07:27;76.17;;;27.57;;
14247;SDS011;7208;49.826;6.004;2022-09-11T04:09:55;80.43;;;26.40;;
14247;SDS011;7208;49.826;6.004;2022-09-11T04:12:21;91.50;;;28.47;;
14247;SDS011;7208;49.826;6.004;2022-09-11T04:14:47;69.57;;;26.63;;
14247;SDS011;7208;49.826;6.004;2022-09-11T04:17:14;93.70;;;28.20;;
14247;SDS011;7208;49.826;6.004;2022-09-11T04:19:40;98.90;;;29.30;;
14247;SDS011;7208;49.826;6.004;2022-09-11T04:22:06;94.23;;;30.23;;
14247;SDS011;7208;49.826;6.004;2022-09-11T04:24:33;79.90;;;30.70;;
14247;SDS011;7208;49.826;6.004;2022-09-11T04:26:59;109.63;;;31.27;;
14247;SDS011;7208;49.826;6.004;2022-09-11T04:29:25;84.80;;;30.43;;
14247;SDS011;7208;49.826;6.004;2022-09-11T04:31:52;93.23;;;32.57;;
14247;SDS011;7208;49.826;6.004;2022-09-11T04:34:18;89.13;;;31.30;;
14247;SDS011;7208;49.826;6.004;2022-09-11T04:36:44;83.60;;;32.70;;
14247;SDS011;7208;49.826;6.004;2022-09-11T04:39:10;80.83;;;31.47;;
14247;SDS011;7208;49.826;6.004;2022-09-11T04:41:36;90.87;;;32.63;;
14247;SDS011;7208;49.826;6.004;2022-09-11T04:44:02;122.87;;;33.17;;
14247;SDS011;7208;49.826;6.004;2022-09-11T04:46:28;116.63;;;33.10;;
14247;SDS011;7208;49.826;6.004;2022-09-11T04:48:55;108.77;;;29.40;;
14247;SDS011;7208;49.826;6.004;2022-09-11T04:51:27;100.77;;;29.00;;
14247;SDS011;7208;49.826;6.004;2022-09-11T04:53:54;95.17;;;29.70;;
14247;SDS011;7208;49.826;6.004;2022-09-11T04:56:24;90.83;;;29.40;;
14247;SDS011;7208;49.826;6.004;2022-09-11T04:58:55;112.97;;;30.77;;
14247;SDS011;7208;49.826;6.004;2022-09-11T05:01:21;77.70;;;28.63;;
14247;SDS011;7208;49.826;6.004;2022-09-11T05:03:47;83.40;;;29.10;;
14247;SDS011;7208;49.826;6.004;2022-09-11T05:06:14;73.63;;;28.63;;
14247;SDS011;7208;49.826;6.004;2022-09-11T05:08:41;84.70;;;28.77;;
14247;SDS011;7208;49.826;6.004;2022-09-11T05:11:09;70.93;;;29.53;;
14247;SDS011;7208;49.826;6.004;2022-09-11T05:13:35;74.30;;;29.40;;
14247;SDS011;7208;49.826;6.004;2022-09-11T05:16:05;84.63;;;30.90;;
14247;SDS011;7208;49.826;6.004;2022-09-11T05:18:32;99.30;;;28.27;;
14247;SDS011;7208;49.826;6.004;2022-09-11T05:21:03;108.33;;;30.60;;
14247;SDS011;7208;49.826;6.004;2022-09-11T05:23:30;119.10;;;29.93;;
14247;SDS011;7208;49.826;6.004;2022-09-11T05:26:00;76.03;;;29.50;;
14247;SDS011;7208;49.826;6.004;2022-09-11T05:28:27;81.90;;;30.30;;
14247;SDS011;7208;49.826;6.004;2022-09-11T05:30:53;86.97;;;30.03;;
14247;SDS011;7208;49.826;6.004;2022-09-11T05:33:20;94.33;;;30.03;;
14247;SDS011;7208;49.826;6.004;2022-09-11T05:35:48;111.73;;;28.77;;
14247;SDS011;7208;49.826;6.004;2022-09-11T05:38:15;106.57;;;29.43;;
14247;SDS011;7208;49.826;6.004;2022-09-11T05:40:44;76.53;;;28.93;;
14247;SDS011;7208;49.826;6.004;2022-09-11T05:43:12;85.13;;;29.63;;
14247;SDS011;7208;49.826;6.004;2022-09-11T05:45:39;115.73;;;32.33;;
14247;SDS011;7208;49.826;6.004;2022-09-11T05:48:06;81.87;;;30.50;;
14247;SDS011;7208;49.826;6.004;2022-09-11T05:50:32;102.50;;;29.60;;
14247;SDS011;7208;49.826;6.004;2022-09-11T05:52:58;105.13;;;29.87;;
14247;SDS011;7208;49.826;6.004;2022-09-11T05:55:24;252.43;;;36.00;;
14247;SDS011;7208;49.826;6.004;2022-09-11T05:57:51;157.60;;;31.63;;
14247;SDS011;7208;49.826;6.004;2022-09-11T06:00:17;573.33;;;47.70;;
14247;SDS011;7208;49.826;6.004;2022-09-11T06:02:44;486.80;;;40.83;;
14247;SDS011;7208;49.826;6.004;2022-09-11T06:05:12;672.13;;;48.90;;
14247;SDS011;7208;49.826;6.004;2022-09-11T06:07:38;516.93;;;45.53;;
14247;SDS011;7208;49.826;6.004;2022-09-11T06:10:04;222.30;;;33.60;;
14247;SDS011;7208;49.826;6.004;2022-09-11T06:12:31;160.93;;;30.77;;
14247;SDS011;7208;49.826;6.004;2022-09-11T06:14:57;76.20;;;28.37;;
14247;SDS011;7208;49.826;6.004;2022-09-11T06:17:23;87.17;;;28.73;;
14247;SDS011;7208;49.826;6.004;2022-09-11T06:19:49;92.77;;;29.70;;
14247;SDS011;7208;49.826;6.004;2022-09-11T06:22:15;112.27;;;29.63;;
14247;SDS011;7208;49.826;6.004;2022-09-11T06:24:41;86.97;;;29.00;;
14247;SDS011;7208;49.826;6.004;2022-09-11T06:27:07;67.33;;;29.07;;
14247;SDS011;7208;49.826;6.004;2022-09-11T06:29:33;77.20;;;28.23;;
14247;SDS011;7208;49.826;6.004;2022-09-11T06:31:59;78.17;;;28.53;;
14247;SDS011;7208;49.826;6.004;2022-09-11T06:34:25;110.83;;;29.47;;
14247;SDS011;7208;49.826;6.004;2022-09-11T06:36:51;83.00;;;30.87;;
14247;SDS011;7208;49.826;6.004;2022-09-11T06:39:17;102.73;;;31.67;;
14247;SDS011;7208;49.826;6.004;2022-09-11T06:41:50;78.17;;;29.83;;
14247;SDS011;7208;49.826;6.004;2022-09-11T06:44:18;92.87;;;31.37;;
14247;SDS011;7208;49.826;6.004;2022-09-11T06:46:44;68.83;;;28.97;;
14247;SDS011;7208;49.826;6.004;2022-09-11T06:49:10;76.03;;;30.87;;
14247;SDS011;7208;49.826;6.004;2022-09-11T06:51:36;69.80;;;31.57;;
14247;SDS011;7208;49.826;6.004;2022-09-11T06:54:04;73.97;;;30.87;;
14247;SDS011;7208;49.826;6.004;2022-09-11T06:56:30;81.73;;;31.37;;
14247;SDS011;7208;49.826;6.004;2022-09-11T06:58:56;78.37;;;31.67;;
14247;SDS011;7208;49.826;6.004;2022-09-11T07:01:23;67.77;;;31.90;;
14247;SDS011;7208;49.826;6.004;2022-09-11T07:03:50;61.73;;;30.00;;
14247;SDS011;7208;49.826;6.004;2022-09-11T07:06:18;63.00;;;31.23;;
14247;SDS011;7208;49.826;6.004;2022-09-11T07:08:51;64.17;;;33.47;;
14247;SDS011;7208;49.826;6.004;2022-09-11T07:11:17;63.90;;;34.30;;
14247;SDS011;7208;49.826;6.004;2022-09-11T07:13:44;69.93;;;35.03;;
14247;SDS011;7208;49.826;6.004;2022-09-11T07:16:10;92.67;;;41.50;;
14247;SDS011;7208;49.826;6.004;2022-09-11T07:18:38;80.47;;;40.50;;
14247;SDS011;7208;49.826;6.004;2022-09-11T07:21:08;67.27;;;39.10;;
14247;SDS011;7208;49.826;6.004;2022-09-11T07:23:35;64.97;;;38.00;;
14247;SDS011;7208;49.826;6.004;2022-09-11T07:26:05;56.10;;;35.47;;
14247;SDS011;7208;49.826;6.004;2022-09-11T07:28:31;47.00;;;33.10;;
14247;SDS011;7208;49.826;6.004;2022-09-11T07:31:02;33.97;;;28.73;;
14247;SDS011;7208;49.826;6.004;2022-09-11T07:33:28;29.83;;;26.63;;
14247;SDS011;7208;49.826;6.004;2022-09-11T07:35:54;27.17;;;23.50;;
14247;SDS011;7208;49.826;6.004;2022-09-11T07:38:20;24.73;;;22.27;;
14247;SDS011;7208;49.826;6.004;2022-09-11T07:40:46;26.07;;;23.57;;
14247;SDS011;7208;49.826;6.004;2022-09-11T07:43:13;24.73;;;22.53;;
14247;SDS011;7208;49.826;6.004;2022-09-11T07:45:39;22.77;;;20.67;;
14247;SDS011;7208;49.826;6.004;2022-09-11T07:48:05;20.60;;;18.90;;
14247;SDS011;7208;49.826;6.004;2022-09-11T07:50:31;20.13;;;18.53;;
14247;SDS011;7208;49.826;6.004;2022-09-11T07:52:57;19.73;;;18.23;;
14247;SDS011;7208;49.826;6.004;2022-09-11T07:55:23;19.93;;;18.27;;
14247;SDS011;7208;49.826;6.004;2022-09-11T07:57:50;17.23;;;15.93;;
14247;SDS011;7208;49.826;6.004;2022-09-11T08:00:16;11.20;;;10.40;;
14247;SDS011;7208;49.826;6.004;2022-09-11T08:02:43;7.40;;;6.80;;
14247;SDS011;7208;49.826;6.004;2022-09-11T08:05:09;7.60;;;6.87;;
14247;SDS011;7208;49.826;6.004;2022-09-11T08:07:35;7.10;;;6.50;;
14247;SDS011;7208;49.826;6.004;2022-09-11T08:10:01;6.53;;;6.03;;
14247;SDS011;7208;49.826;6.004;2022-09-11T08:12:27;7.33;;;6.70;;
14247;SDS011;7208;49.826;6.004;2022-09-11T08:14:55;8.90;;;8.20;;
14247;SDS011;7208;49.826;6.004;2022-09-11T08:17:21;5.77;;;5.30;;
14247;SDS011;7208;49.826;6.004;2022-09-11T08:19:47;6.23;;;5.67;;
14247;SDS011;7208;49.826;6.004;2022-09-11T08:22:13;6.13;;;5.57;;
14247;SDS011;7208;49.826;6.004;2022-09-11T08:24:39;6.00;;;5.50;;
14247;SDS011;7208;49.826;6.004;2022-09-11T08:27:05;5.30;;;4.80;;
14247;SDS011;7208;49.826;6.004;2022-09-11T08:29:31;4.63;;;4.23;;
14247;SDS011;7208;49.826;6.004;2022-09-11T08:31:57;4.07;;;3.67;;
14247;SDS011;7208;49.826;6.004;2022-09-11T08:34:23;3.77;;;3.47;;
14247;SDS011;7208;49.826;6.004;2022-09-11T08:36:49;3.37;;;3.10;;
14247;SDS011;7208;49.826;6.004;2022-09-11T08:39:16;3.20;;;2.90;;
14247;SDS011;7208;49.826;6.004;2022-09-11T08:44:15;4.37;;;3.60;;
14247;SDS011;7208;49.826;6.004;2022-09-11T08:46:45;3.43;;;3.23;;
14247;SDS011;7208;49.826;6.004;2022-09-11T08:51:48;5.53;;;5.10;;
14247;SDS011;7208;49.826;6.004;2022-09-11T08:54:23;5.63;;;5.00;;
14247;SDS011;7208;49.826;6.004;2022-09-11T08:56:51;5.17;;;4.77;;
14247;SDS011;7208;49.826;6.004;2022-09-11T08:59:21;4.80;;;4.40;;
14247;SDS011;7208;49.826;6.004;2022-09-11T09:09:44;4.60;;;4.30;;
14247;SDS011;7208;49.826;6.004;2022-09-11T09:12:16;4.43;;;4.03;;
14247;SDS011;7208;49.826;6.004;2022-09-11T09:17:28;3.83;;;3.50;;
14247;SDS011;7208;49.826;6.004;2022-09-11T09:20:12;4.50;;;4.10;;
14247;SDS011;7208;49.826;6.004;2022-09-11T09:22:48;3.70;;;3.40;;
14247;SDS011;7208;49.826;6.004;2022-09-11T09:25:17;3.07;;;2.73;;
14247;SDS011;7208;49.826;6.004;2022-09-11T09:27:51;3.00;;;2.80;;
14247;SDS011;7208;49.826;6.004;2022-09-11T09:30:19;3.87;;;2.50;;
14247;SDS011;7208;49.826;6.004;2022-09-11T09:35:39;2.23;;;2.07;;
14247;SDS011;7208;49.826;6.004;2022-09-11T09:38:13;2.13;;;1.93;;
14247;SDS011;7208;49.826;6.004;2022-09-11T09:41:25;2.30;;;2.10;;
14247;SDS011;7208;49.826;6.004;2022-09-11T09:48:25;2.90;;;2.17;;
14247;SDS011;7208;49.826;6.004;2022-09-11T09:50:51;2.53;;;2.33;;
14247;SDS011;7208;49.826;6.004;2022-09-11T09:53:28;2.17;;;2.00;;
14247;SDS011;7208;49.826;6.004;2022-09-11T09:55:57;2.40;;;1.97;;
14247;SDS011;7208;49.826;6.004;2022-09-11T09:58:24;2.97;;;2.20;;
14247;SDS011;7208;49.826;6.004;2022-09-11T10:00:51;4.37;;;2.87;;
14247;SDS011;7208;49.826;6.004;2022-09-11T10:03:21;3.30;;;3.00;;
14247;SDS011;7208;49.826;6.004;2022-09-11T10:05:48;4.07;;;3.60;;
14247;SDS011;7208;49.826;6.004;2022-09-11T10:10:53;3.10;;;2.90;;
14247;SDS011;7208;49.826;6.004;2022-09-11T10:13:21;3.20;;;3.00;;
14247;SDS011;7208;49.826;6.004;2022-09-11T10:15:50;3.53;;;3.23;;
14247;SDS011;7208;49.826;6.004;2022-09-11T10:23:52;3.40;;;3.10;;
14247;SDS011;7208;49.826;6.004;2022-09-11T10:28:47;3.00;;;2.70;;
14247;SDS011;7208;49.826;6.004;2022-09-11T10:31:13;3.03;;;2.57;;
14247;SDS011;7208;49.826;6.004;2022-09-11T10:34:16;2.50;;;2.30;;
14247;SDS011;7208;49.826;6.004;2022-09-11T10:36:35;2.60;;;2.40;;
14247;SDS011;7208;49.826;6.004;2022-09-11T10:39:01;3.10;;;2.63;;
14247;SDS011;7208;49.826;6.004;2022-09-11T10:41:27;4.53;;;2.30;;
14247;SDS011;7208;49.826;6.004;2022-09-11T10:44:11;2.47;;;2.27;;
14247;SDS011;7208;49.826;6.004;2022-09-11T10:46:40;2.37;;;2.10;;
14247;SDS011;7208;49.826;6.004;2022-09-11T10:49:08;2.23;;;2.13;;
14247;SDS011;7208;49.826;6.004;2022-09-11T10:51:39;2.37;;;2.13;;
14247;SDS011;7208;49.826;6.004;2022-09-11T10:56:31;2.30;;;2.10;;
14247;SDS011;7208;49.826;6.004;2022-09-11T10:59:02;2.00;;;1.77;;
14247;SDS011;7208;49.826;6.004;2022-09-11T11:01:30;2.33;;;2.10;;
14247;SDS011;7208;49.826;6.004;2022-09-11T11:03:57;2.13;;;1.90;;
14247;SDS011;7208;49.826;6.004;2022-09-11T11:19:03;3.80;;;1.97;;
14247;SDS011;7208;49.826;6.004;2022-09-11T11:29:31;2.27;;;2.17;;
14247;SDS011;7208;49.826;6.004;2022-09-11T11:37:27;2.33;;;2.13;;
14247;SDS011;7208;49.826;6.004;2022-09-11T11:42:24;1.77;;;1.67;;
14247;SDS011;7208;49.826;6.004;2022-09-11T11:44:52;2.27;;;2.10;;
14247;SDS011;7208;49.826;6.004;2022-09-11T11:47:20;2.77;;;2.40;;
14247;SDS011;7208;49.826;6.004;2022-09-11T11:50:06;2.73;;;1.80;;
14247;SDS011;7208;49.826;6.004;2022-09-11T11:55:15;2.50;;;2.30;;
14247;SDS011;7208;49.826;6.004;2022-09-11T11:57:44;2.23;;;2.03;;
14247;SDS011;7208;49.826;6.004;2022-09-11T12:00:12;2.50;;;1.77;;
14247;SDS011;7208;49.826;6.004;2022-09-11T12:05:09;3.63;;;2.03;;
14247;SDS011;7208;49.826;6.004;2022-09-11T12:07:35;1.50;;;1.40;;
14247;SDS011;7208;49.826;6.004;2022-09-11T12:10:04;1.77;;;1.50;;
14247;SDS011;7208;49.826;6.004;2022-09-11T12:12:32;2.00;;;1.50;;
14247;SDS011;7208;49.826;6.004;2022-09-11T12:15:05;1.07;;;1.03;;
14247;SDS011;7208;49.826;6.004;2022-09-11T12:17:32;2.23;;;1.23;;
14247;SDS011;7208;49.826;6.004;2022-09-11T12:22:40;1.80;;;1.40;;
14247;SDS011;7208;49.826;6.004;2022-09-11T12:30:30;1.40;;;1.30;;
14247;SDS011;7208;49.826;6.004;2022-09-11T12:36:01;1.45;;;1.08;;
14247;SDS011;7208;49.826;6.004;2022-09-11T12:38:40;1.75;;;1.30;;
14247;SDS011;7208;49.826;6.004;2022-09-11T12:41:15;1.55;;;1.20;;
14247;SDS011;7208;49.826;6.004;2022-09-11T12:43:47;1.30;;;1.20;;
14247;SDS011;7208;49.826;6.004;2022-09-11T12:48:49;2.40;;;1.45;;
14247;SDS011;7208;49.826;6.004;2022-09-11T12:51:21;2.07;;;1.30;;
14247;SDS011;7208;49.826;6.004;2022-09-11T12:53:49;1.40;;;1.30;;
14247;SDS011;7208;49.826;6.004;2022-09-11T12:56:21;1.50;;;1.40;;
14247;SDS011;7208;49.826;6.004;2022-09-11T12:58:51;1.60;;;1.50;;
14247;SDS011;7208;49.826;6.004;2022-09-11T13:01:20;1.70;;;1.37;;
14247;SDS011;7208;49.826;6.004;2022-09-11T13:03:53;1.93;;;1.67;;
14247;SDS011;7208;49.826;6.004;2022-09-11T13:06:20;2.33;;;1.50;;
14247;SDS011;7208;49.826;6.004;2022-09-11T13:08:51;3.57;;;1.43;;
14247;SDS011;7208;49.826;6.004;2022-09-11T13:14:00;1.63;;;1.20;;
14247;SDS011;7208;49.826;6.004;2022-09-11T13:16:27;1.70;;;1.60;;
14247;SDS011;7208;49.826;6.004;2022-09-11T13:18:59;1.70;;;1.60;;
14247;SDS011;7208;49.826;6.004;2022-09-11T13:21:27;1.80;;;1.70;;
14247;SDS011;7208;49.826;6.004;2022-09-11T13:23:53;2.23;;;1.30;;
14247;SDS011;7208;49.826;6.004;2022-09-11T13:26:25;1.40;;;1.30;;
14247;SDS011;7208;49.826;6.004;2022-09-11T13:28:54;1.17;;;1.17;;
14247;SDS011;7208;49.826;6.004;2022-09-11T13:33:53;1.53;;;1.37;;
14247;SDS011;7208;49.826;6.004;2022-09-11T13:36:20;2.17;;;1.30;;
14247;SDS011;7208;49.826;6.004;2022-09-11T13:38:51;1.50;;;1.30;;
14247;SDS011;7208;49.826;6.004;2022-09-11T13:41:20;1.67;;;1.00;;
14247;SDS011;7208;49.826;6.004;2022-09-11T13:44:09;1.20;;;1.10;;
14247;SDS011;7208;49.826;6.004;2022-09-11T13:46:34;1.17;;;1.17;;
14247;SDS011;7208;49.826;6.004;2022-09-11T13:51:32;1.00;;;0.90;;
14247;SDS011;7208;49.826;6.004;2022-09-11T13:54:10;1.60;;;1.00;;
14247;SDS011;7208;49.826;6.004;2022-09-11T13:57:26;2.53;;;1.10;;
14247;SDS011;7208;49.826;6.004;2022-09-11T14:02:18;1.10;;;1.00;;
14247;SDS011;7208;49.826;6.004;2022-09-11T14:04:45;0.82;;;0.82;;
14247;SDS011;7208;49.826;6.004;2022-09-11T14:07:14;0.90;;;0.90;;
14247;SDS011;7208;49.826;6.004;2022-09-11T14:09:44;1.27;;;1.10;;
14247;SDS011;7208;49.826;6.004;2022-09-11T14:12:13;1.35;;;1.00;;
14247;SDS011;7208;49.826;6.004;2022-09-11T14:14:40;1.17;;;0.90;;
14247;SDS011;7208;49.826;6.004;2022-09-11T14:17:11;3.63;;;1.30;;
14247;SDS011;7208;49.826;6.004;2022-09-11T14:19:40;1.30;;;1.20;;
14247;SDS011;7208;49.826;6.004;2022-09-11T14:22:14;1.20;;;1.10;;
14247;SDS011;7208;49.826;6.004;2022-09-11T14:29:56;1.57;;;1.47;;
14247;SDS011;7208;49.826;6.004;2022-09-11T14:35:02;1.40;;;1.30;;
14247;SDS011;7208;49.826;6.004;2022-09-11T14:37:30;1.10;;;1.10;;
14247;SDS011;7208;49.826;6.004;2022-09-11T14:39:58;1.30;;;1.20;;
14247;SDS011;7208;49.826;6.004;2022-09-11T14:42:28;1.70;;;1.50;;
14247;SDS011;7208;49.826;6.004;2022-09-11T14:44:56;1.50;;;1.40;;
14247;SDS011;7208;49.826;6.004;2022-09-11T14:47:23;1.40;;;1.30;;
14247;SDS011;7208;49.826;6.004;2022-09-11T14:49:50;1.40;;;1.30;;
14247;SDS011;7208;49.826;6.004;2022-09-11T14:52:20;1.83;;;1.40;;
14247;SDS011;7208;49.826;6.004;2022-09-11T14:54:47;1.50;;;1.20;;
14247;SDS011;7208;49.826;6.004;2022-09-11T14:57:17;2.40;;;1.43;;
14247;SDS011;7208;49.826;6.004;2022-09-11T14:59:44;1.40;;;1.37;;
14247;SDS011;7208;49.826;6.004;2022-09-11T15:02:11;1.53;;;1.43;;
14247;SDS011;7208;49.826;6.004;2022-09-11T15:04:37;1.77;;;1.40;;
14247;SDS011;7208;49.826;6.004;2022-09-11T15:07:04;1.60;;;1.50;;
14247;SDS011;7208;49.826;6.004;2022-09-11T15:09:30;1.70;;;1.40;;
14247;SDS011;7208;49.826;6.004;2022-09-11T15:11:56;1.57;;;1.30;;
14247;SDS011;7208;49.826;6.004;2022-09-11T15:14:22;1.50;;;1.40;;
14247;SDS011;7208;49.826;6.004;2022-09-11T15:16:49;1.73;;;1.53;;
14247;SDS011;7208;49.826;6.004;2022-09-11T15:22:39;4.00;;;1.70;;
14247;SDS011;7208;49.826;6.004;2022-09-11T15:25:06;2.20;;;1.80;;
14247;SDS011;7208;49.826;6.004;2022-09-11T15:27:32;2.03;;;1.90;;
14247;SDS011;7208;49.826;6.004;2022-09-11T15:29:58;1.90;;;1.80;;
14247;SDS011;7208;49.826;6.004;2022-09-11T15:32:24;1.83;;;1.73;;
14247;SDS011;7208;49.826;6.004;2022-09-11T15:34:50;2.10;;;1.77;;
14247;SDS011;7208;49.826;6.004;2022-09-11T15:37:17;1.88;;;1.77;;
14247;SDS011;7208;49.826;6.004;2022-09-11T15:39:44;2.05;;;1.50;;
14247;SDS011;7208;49.826;6.004;2022-09-11T15:42:10;1.77;;;1.60;;
14247;SDS011;7208;49.826;6.004;2022-09-11T15:44:36;2.53;;;1.75;;
14247;SDS011;7208;49.826;6.004;2022-09-11T15:47:02;1.73;;;1.63;;
14247;SDS011;7208;49.826;6.004;2022-09-11T15:49:28;2.15;;;1.95;;
14247;SDS011;7208;49.826;6.004;2022-09-11T15:51:56;2.15;;;2.00;;
14247;SDS011;7208;49.826;6.004;2022-09-11T15:54:22;2.10;;;1.60;;
14247;SDS011;7208;49.826;6.004;2022-09-11T15:56:49;1.63;;;1.52;;
14247;SDS011;7208;49.826;6.004;2022-09-11T15:59:15;3.05;;;1.90;;
14247;SDS011;7208;49.826;6.004;2022-09-11T16:01:42;2.15;;;2.05;;
14247;SDS011;7208;49.826;6.004;2022-09-11T16:04:56;4.15;;;2.10;;
14247;SDS011;7208;49.826;6.004;2022-09-11T16:07:22;1.63;;;1.52;;
14247;SDS011;7208;49.826;6.004;2022-09-11T16:09:48;2.38;;;1.85;;
14247;SDS011;7208;49.826;6.004;2022-09-11T16:12:14;2.38;;;2.17;;
14247;SDS011;7208;49.826;6.004;2022-09-11T16:14:41;3.17;;;1.80;;
14247;SDS011;7208;49.826;6.004;2022-09-11T16:17:08;2.28;;;1.95;;
14247;SDS011;7208;49.826;6.004;2022-09-11T16:19:34;1.92;;;1.83;;
14247;SDS011;7208;49.826;6.004;2022-09-11T16:22:02;2.00;;;1.90;;
14247;SDS011;7208;49.826;6.004;2022-09-11T16:24:32;2.08;;;1.98;;
14247;SDS011;7208;49.826;6.004;2022-09-11T16:27:01;2.53;;;2.33;;
14247;SDS011;7208;49.826;6.004;2022-09-11T16:29:30;2.65;;;2.50;;
14247;SDS011;7208;49.826;6.004;2022-09-11T16:31:57;2.70;;;2.50;;
14247;SDS011;7208;49.826;6.004;2022-09-11T16:34:23;2.05;;;1.85;;
14247;SDS011;7208;49.826;6.004;2022-09-11T16:36:49;2.38;;;2.20;;
14247;SDS011;7208;49.826;6.004;2022-09-11T16:39:17;2.47;;;2.28;;
14247;SDS011;7208;49.826;6.004;2022-09-11T16:41:43;2.80;;;2.60;;
14247;SDS011;7208;49.826;6.004;2022-09-11T16:44:11;2.20;;;2.10;;
14247;SDS011;7208;49.826;6.004;2022-09-11T16:46:37;3.53;;;2.50;;
14247;SDS011;7208;49.826;6.004;2022-09-11T16:49:04;2.55;;;2.45;;
14247;SDS011;7208;49.826;6.004;2022-09-11T16:51:30;2.80;;;2.33;;
14247;SDS011;7208;49.826;6.004;2022-09-11T16:53:58;2.83;;;2.63;;
14247;SDS011;7208;49.826;6.004;2022-09-11T16:56:24;4.00;;;2.83;;
14247;SDS011;7208;49.826;6.004;2022-09-11T16:58:51;3.22;;;2.75;;
14247;SDS011;7208;49.826;6.004;2022-09-11T17:01:22;3.20;;;3.00;;
14247;SDS011;7208;49.826;6.004;2022-09-11T17:03:50;3.45;;;3.10;;
14247;SDS011;7208;49.826;6.004;2022-09-11T17:06:16;2.80;;;2.65;;
14247;SDS011;7208;49.826;6.004;2022-09-11T17:08:46;3.28;;;2.97;;
14247;SDS011;7208;49.826;6.004;2022-09-11T17:11:14;2.92;;;2.72;;
14247;SDS011;7208;49.826;6.004;2022-09-11T17:13:42;3.08;;;2.83;;
14247;SDS011;7208;49.826;6.004;2022-09-11T17:16:09;3.40;;;3.13;;
14247;SDS011;7208;49.826;6.004;2022-09-11T17:18:36;4.10;;;3.70;;
14247;SDS011;7208;49.826;6.004;2022-09-11T17:21:03;3.63;;;3.37;;
14247;SDS011;7208;49.826;6.004;2022-09-11T17:23:30;3.97;;;3.60;;